createdAt,value
2018-07-23T18:47:22.400Z,34.50
2018-07-23T18:49:54.291Z,35.10
2018-07-23T18:52:24.573Z,34.90
2018-07-23T18:54:54.858Z,35.20
2018-07-23T18:57:25.417Z,34.80
2018-07-23T18:59:56.385Z,35.00
2018-07-23T19:02:26.492Z,35.00
2018-07-23T19:04:57.508Z,35.40
2018-07-23T19:07:28.131Z,35.30
2018-07-23T19:09:59.575Z,35.40
2018-07-23T19:12:30.337Z,35.70
2018-07-23T19:15:00.408Z,35.60
2018-07-23T19:17:33.122Z,35.70
2018-07-23T19:20:03.167Z,35.70
2018-07-23T19:22:34.351Z,36.00
2018-07-23T19:25:06.614Z,35.90
2018-07-23T19:27:38.126Z,36.10
2018-07-23T19:30:09.849Z,36.10
2018-07-23T19:32:41.794Z,36.30
2018-07-23T19:35:12.150Z,36.40
2018-07-23T19:37:44.564Z,36.60
2018-07-23T19:40:16.694Z,36.70
2018-07-23T19:42:47.911Z,36.80
2018-07-23T19:45:18.145Z,37.00
2018-07-23T19:47:47.015Z,37.10
2018-07-23T19:50:16.711Z,37.30
2018-07-23T19:52:45.228Z,37.30
2018-07-23T19:57:42.284Z,37.60
2018-07-23T20:00:11.358Z,37.60
2018-07-23T20:02:40.367Z,37.70
2018-07-23T20:05:09.377Z,37.80
2018-07-23T20:07:38.252Z,37.90
2018-07-23T20:10:06.843Z,38.00
2018-07-23T20:12:35.470Z,38.00
2018-07-23T20:15:04.192Z,38.00
2018-07-23T20:17:32.863Z,38.20
2018-07-23T20:20:03.738Z,38.40
2018-07-23T20:22:32.939Z,39.10
2018-07-23T20:25:03.110Z,38.70
2018-07-23T20:27:33.298Z,38.90
2018-07-23T20:30:02.201Z,39.00
2018-07-23T20:35:00.768Z,39.40
2018-07-23T20:37:30.296Z,39.50
2018-07-23T20:39:58.949Z,40.00
2018-07-23T20:42:28.807Z,39.80
2018-07-23T20:44:58.534Z,39.90
2018-07-23T20:47:28.578Z,40.00
2018-07-23T20:49:58.426Z,40.10
2018-07-23T20:52:29.322Z,40.10
2018-07-23T20:54:59.139Z,40.30
2018-07-23T20:57:28.768Z,40.40
2018-07-23T20:59:57.960Z,40.40
2018-07-23T21:02:27.071Z,40.60
2018-07-23T21:04:56.565Z,40.60
2018-07-23T21:07:26.208Z,40.70
2018-07-23T21:09:55.060Z,40.80
2018-07-23T21:12:24.915Z,41.00
2018-07-23T21:14:55.886Z,40.90
2018-07-23T21:17:26.451Z,41.00
2018-07-23T21:19:56.420Z,41.00
2018-07-23T21:22:26.163Z,41.20
2018-07-23T21:24:55.495Z,41.20
2018-07-23T21:27:24.826Z,41.30
2018-07-23T21:29:53.643Z,41.00
2018-07-23T21:32:23.270Z,41.40
2018-07-23T21:34:53.003Z,41.60
2018-07-23T21:37:22.500Z,41.70
2018-07-23T21:39:51.701Z,41.90
2018-07-23T21:42:21.697Z,42.00
2018-07-23T21:44:51.424Z,42.10
2018-07-23T21:47:21.334Z,42.10
2018-07-23T21:49:51.728Z,42.20
2018-07-23T21:52:21.310Z,42.30
2018-07-23T21:54:51.612Z,42.40
2018-07-23T21:57:21.225Z,42.60
2018-07-23T21:59:51.184Z,42.60
2018-07-23T22:02:21.412Z,42.80
2018-07-23T22:04:51.072Z,42.90
2018-07-23T22:07:21.207Z,43.00
2018-07-23T22:09:50.904Z,43.00
2018-07-23T22:14:50.680Z,43.40
2018-07-23T22:17:20.451Z,43.50
2018-07-23T22:19:50.316Z,43.60
2018-07-23T22:22:19.696Z,44.30
2018-07-23T22:24:48.374Z,43.90
2018-07-23T22:27:17.209Z,44.10
2018-07-23T22:29:47.201Z,44.20
2018-07-23T22:32:16.937Z,44.40
2018-07-23T22:34:46.667Z,44.50
2018-07-23T22:39:45.994Z,44.80
2018-07-23T22:42:15.838Z,44.80
2018-07-23T22:44:49.487Z,45.00
2018-07-23T22:47:18.309Z,45.00
2018-07-23T22:49:47.840Z,45.10
2018-07-23T22:52:18.582Z,45.20
2018-07-23T22:54:48.762Z,45.20
2018-07-23T22:57:18.655Z,45.20
2018-07-23T22:59:48.741Z,45.70
2018-07-23T23:02:19.395Z,45.30
2018-07-23T23:04:48.537Z,45.30
2018-07-23T23:07:17.569Z,45.40
2018-07-23T23:09:47.704Z,45.50
2018-07-23T23:12:17.493Z,45.80
2018-07-23T23:14:47.493Z,45.90
2018-07-23T23:17:17.597Z,46.10
2018-07-23T23:19:47.651Z,46.10
2018-07-23T23:22:17.866Z,46.20
2018-07-23T23:24:47.968Z,46.30
2018-07-23T23:27:18.001Z,46.50
2018-07-23T23:29:47.952Z,46.70
2018-07-23T23:32:17.452Z,46.80
2018-07-23T23:34:47.319Z,47.00
2018-07-23T23:37:17.667Z,47.10
2018-07-23T23:39:48.980Z,47.20
2018-07-23T23:42:19.332Z,47.40
2018-07-23T23:44:50.071Z,47.50
2018-07-23T23:47:20.485Z,47.60
2018-07-23T23:49:50.681Z,47.70
2018-07-23T23:52:21.196Z,47.80
2018-07-23T23:57:21.804Z,48.10
